Time;durP1;ratioP1;P1;durP2;ratioP2;P2;SDS_P1;SDS_P2;PMS_P1;PMS_P2;Temp;Humidity;BMP_temperature;BMP_pressure;BME280_temperature;BME280_humidity;BME280_pressure;Samples;Min_cycle;Max_cycle;Signal;HPM_P1;HPM_P2
2021/10/31 00:02:14;;;;;;;9.03;5.50;;;;;;;10.12;100.00;95849.09;5056893;28;20204;-70
2021/10/31 00:04:41;;;;;;;10.70;5.87;;;;;;;10.28;100.00;95847.09;5056934;28;20577;-70
2021/10/31 00:07:08;;;;;;;9.13;5.20;;;;;;;10.33;100.00;95845.56;5055750;28;20222;-70
2021/10/31 00:09:34;;;;;;;12.50;5.73;;;;;;;10.29;100.00;95856.63;5057175;28;20205;-70
2021/10/31 00:12:01;;;;;;;10.87;4.90;;;;;;;10.16;100.00;95880.16;5057033;28;20588;-70
2021/10/31 00:14:27;;;;;;;7.17;5.17;;;;;;;10.22;100.00;95884.72;5055772;28;20204;-70
2021/10/31 00:16:59;;;;;;;8.43;4.67;;;;;;;10.40;100.00;95895.66;5055277;28;20905;-70
2021/10/31 00:19:26;;;;;;;11.87;5.23;;;;;;;10.29;100.00;95884.78;5056307;28;20217;-70
2021/10/31 00:21:52;;;;;;;11.23;5.67;;;;;;;10.32;100.00;95895.75;5056533;28;20207;-70
2021/10/31 00:24:19;;;;;;;7.83;4.67;;;;;;;10.37;100.00;95883.69;5055275;28;20209;-70
2021/10/31 00:26:46;;;;;;;14.20;5.60;;;;;;;10.21;100.00;95882.22;5055532;28;20224;-70
2021/10/31 00:29:12;;;;;;;8.50;5.53;;;;;;;10.34;100.00;95885.88;5057202;28;20207;-70
2021/10/31 00:31:39;;;;;;;9.77;4.90;;;;;;;10.26;100.00;95887.78;5055996;28;20228;-70
2021/10/31 00:34:07;;;;;;;7.70;4.40;;;;;;;10.36;100.00;95887.31;5056168;28;20196;-70
2021/10/31 00:36:34;;;;;;;15.23;5.33;;;;;;;10.24;100.00;95884.53;5055767;28;20220;-70
2021/10/31 00:39:00;;;;;;;10.50;4.37;;;;;;;10.26;100.00;95885.13;5056513;28;20552;-70
2021/10/31 00:41:27;;;;;;;14.07;4.90;;;;;;;10.33;100.00;95890.31;5056421;28;20204;-70
2021/10/31 00:43:53;;;;;;;10.57;6.13;;;;;;;10.38;100.00;95890.56;5056298;28;20205;-70
2021/10/31 00:46:20;;;;;;;9.03;5.37;;;;;;;10.37;100.00;95886.31;5058977;28;20201;-70
2021/10/31 00:48:46;;;;;;;7.87;4.60;;;;;;;10.31;100.00;95890.66;5059799;28;20205;-70
2021/10/31 00:51:14;;;;;;;8.93;5.13;;;;;;;10.41;100.00;95895.47;5059910;28;20225;-70
2021/10/31 00:53:43;;;;;;;9.73;5.30;;;;;;;10.45;100.00;95877.47;5059477;28;20208;-70
2021/10/31 00:56:10;;;;;;;9.50;5.90;;;;;;;10.32;100.00;95874.69;5058487;28;20213;-70
2021/10/31 00:58:37;;;;;;;14.13;5.40;;;;;;;10.17;100.00;95883.59;5059576;28;20211;-70
2021/10/31 01:01:04;;;;;;;10.23;4.53;;;;;;;10.29;100.00;95882.97;5056839;28;20203;-70
2021/10/31 01:03:31;;;;;;;7.50;4.20;;;;;;;10.36;100.00;95886.47;5059290;28;20205;-70
2021/10/31 01:06:28;;;;;;;9.03;5.30;;;;;;;10.70;100.00;95884.06;5059145;28;20211;-70
2021/10/31 01:08:59;;;;;;;9.30;5.10;;;;;;;10.33;100.00;95892.97;5059638;28;20204;-70
2021/10/31 01:11:45;;;;;;;7.70;4.43;;;;;;;10.77;100.00;95892.84;5059272;28;20228;-70
2021/10/31 01:14:29;;;;;;;9.40;4.60;;;;;;;10.85;100.00;95880.38;5059572;28;20641;-70
2021/10/31 01:17:09;;;;;;;8.50;4.57;;;;;;;10.81;100.00;95891.50;5058369;28;20254;-70
2021/10/31 01:19:49;;;;;;;10.57;5.27;;;;;;;10.86;100.00;95897.00;5059005;28;20200;-70
2021/10/31 01:22:31;;;;;;;9.77;5.90;;;;;;;10.81;100.00;95902.84;5059058;28;20214;-70
2021/10/31 01:25:15;;;;;;;5.73;4.67;;;;;;;10.69;100.00;95901.69;5059153;28;20804;-70
2021/10/31 01:27:58;;;;;;;8.23;5.93;;;;;;;10.83;100.00;95905.28;5058036;28;20341;-70
2021/10/31 01:30:35;;;;;;;10.30;5.80;;;;;;;10.83;100.00;95900.00;5059905;28;20581;-70
2021/10/31 01:33:11;;;;;;;8.77;4.97;;;;;;;10.63;100.00;95893.72;5058509;28;20196;-70
2021/10/31 01:35:56;;;;;;;7.90;4.63;;;;;;;10.87;100.00;95901.25;5058040;28;20249;-70
2021/10/31 01:38:35;;;;;;;7.37;4.60;;;;;;;10.92;100.00;95891.81;5059004;28;20235;-70
2021/10/31 01:41:07;;;;;;;7.87;3.70;;;;;;;10.73;100.00;95895.06;5059316;28;20196;-70
2021/10/31 01:43:42;;;;;;;8.03;4.83;;;;;;;10.87;100.00;95890.72;5058595;28;20197;-70
2021/10/31 01:46:15;;;;;;;5.97;4.50;;;;;;;10.83;100.00;95897.38;5058408;28;20215;-70
2021/10/31 01:48:55;;;;;;;5.07;3.77;;;;;;;10.87;100.00;95893.34;5059118;28;20196;-70
2021/10/31 01:51:28;;;;;;;13.23;6.33;;;;;;;10.70;100.00;95897.22;5058648;28;20715;-70
2021/10/31 01:54:00;;;;;;;10.40;4.57;;;;;;;10.74;100.00;95896.66;5059180;28;20207;-70
2021/10/31 01:56:28;;;;;;;9.03;6.00;;;;;;;10.63;100.00;95881.34;5057726;28;20623;-70
2021/10/31 01:59:00;;;;;;;11.47;5.07;;;;;;;10.60;100.00;95878.25;5058620;28;20197;-70
2021/10/31 02:01:30;;;;;;;9.73;5.10;;;;;;;10.45;100.00;95864.28;5056249;28;20204;-70
2021/10/31 02:04:00;;;;;;;9.53;5.33;;;;;;;10.48;100.00;95856.06;5058396;28;20723;-70
2021/10/31 02:06:27;;;;;;;10.60;5.20;;;;;;;10.33;100.00;95842.91;5057672;28;20240;-70
2021/10/31 02:08:57;;;;;;;8.27;4.67;;;;;;;10.36;100.00;95847.81;5058489;28;20196;-70
2021/10/31 02:11:24;;;;;;;12.97;4.60;;;;;;;10.32;100.00;95846.56;5058650;28;20232;-70
2021/10/31 02:13:53;;;;;;;5.80;4.33;;;;;;;10.46;100.00;95847.50;5058459;28;20207;-70
2021/10/31 02:16:21;;;;;;;11.53;5.60;;;;;;;10.49;100.00;95850.59;5057871;28;20212;-70
2021/10/31 02:18:50;;;;;;;7.83;4.10;;;;;;;10.40;100.00;95840.38;5058474;28;20247;-70
2021/10/31 02:21:20;;;;;;;9.57;4.60;;;;;;;10.31;100.00;95836.22;5057665;28;20586;-70
2021/10/31 02:23:49;;;;;;;13.07;5.43;;;;;;;10.38;100.00;95839.72;5057535;28;20212;-70
2021/10/31 02:26:16;;;;;;;10.70;4.63;;;;;;;10.28;100.00;95854.97;5057097;28;20661;-70
2021/10/31 02:28:54;;;;;;;6.20;3.97;;;;;;;10.21;100.00;95856.75;5058245;28;20235;-70
2021/10/31 02:31:20;;;;;;;7.57;4.30;;;;;;;9.96;100.00;95854.56;5057969;28;20228;-70
2021/10/31 02:33:47;;;;;;;6.37;4.20;;;;;;;10.04;100.00;95855.31;5058245;28;20197;-70
2021/10/31 02:36:13;;;;;;;10.83;5.53;;;;;;;10.06;100.00;95845.41;5057049;28;20212;-69
2021/10/31 02:38:40;;;;;;;6.30;3.97;;;;;;;9.86;100.00;95839.03;5057929;28;20196;-69
2021/10/31 02:41:09;;;;;;;7.43;4.50;;;;;;;10.12;100.00;95846.47;5057816;28;20197;-69
2021/10/31 02:43:36;;;;;;;9.20;5.57;;;;;;;9.89;100.00;95837.84;5057722;28;20220;-69
2021/10/31 02:46:02;;;;;;;5.73;4.40;;;;;;;9.88;99.49;95839.66;5056747;28;20205;-69
2021/10/31 02:48:31;;;;;;;7.00;4.80;;;;;;;9.98;100.00;95836.78;5057340;28;20229;-69
2021/10/31 02:51:02;;;;;;;7.13;4.43;;;;;;;9.88;100.00;95837.03;5057796;28;20224;-69
2021/10/31 02:53:37;;;;;;;8.77;4.43;;;;;;;10.02;99.36;95841.50;5057347;28;20205;-69
2021/10/31 02:56:14;;;;;;;5.97;3.67;;;;;;;9.92;99.77;95842.75;5057489;28;20276;-69
2021/10/31 02:58:46;;;;;;;9.27;4.27;;;;;;;9.79;100.00;95819.69;5057940;28;20204;-69
2021/10/31 03:01:14;;;;;;;6.77;4.13;;;;;;;9.50;100.00;95829.41;5054584;28;20220;-69
2021/10/31 03:03:43;;;;;;;4.77;3.27;;;;;;;9.57;100.00;95830.34;5057790;28;20208;-69
2021/10/31 03:06:11;;;;;;;6.17;2.97;;;;;;;9.68;100.00;95831.69;5056996;28;20208;-69
2021/10/31 03:08:37;;;;;;;9.37;4.27;;;;;;;9.57;100.00;95829.50;5056666;28;20659;-69
2021/10/31 03:11:07;;;;;;;8.23;4.23;;;;;;;9.58;100.00;95836.41;5057512;28;20228;-69
2021/10/31 03:13:37;;;;;;;6.67;4.33;;;;;;;9.89;100.00;95851.00;5057315;28;20204;-69
2021/10/31 03:16:04;;;;;;;4.67;3.20;;;;;;;9.70;99.89;95857.63;5056180;28;20201;-69
2021/10/31 03:18:31;;;;;;;8.53;4.90;;;;;;;9.54;100.00;95853.53;5057054;28;20224;-69
2021/10/31 03:20:58;;;;;;;5.53;3.53;;;;;;;9.46;100.00;95859.69;5057659;28;20207;-69
2021/10/31 03:23:24;;;;;;;6.27;3.17;;;;;;;9.45;100.00;95867.75;5057015;28;20217;-69
2021/10/31 03:25:51;;;;;;;5.90;4.17;;;;;;;9.40;100.00;95859.59;5056680;28;20204;-69
2021/10/31 03:28:17;;;;;;;8.90;4.43;;;;;;;9.38;100.00;95851.88;5056817;28;20319;-69
2021/10/31 03:30:45;;;;;;;6.33;4.27;;;;;;;9.63;100.00;95855.88;5057066;28;20201;-69
2021/10/31 03:33:13;;;;;;;8.00;4.47;;;;;;;9.46;100.00;95851.00;5057055;28;20251;-69
2021/10/31 03:35:40;;;;;;;7.03;4.50;;;;;;;9.45;99.39;95851.97;5056844;28;21040;-69
2021/10/31 03:38:06;;;;;;;7.20;4.10;;;;;;;9.36;99.28;95848.59;5057641;28;20228;-69
2021/10/31 03:40:33;;;;;;;6.37;3.83;;;;;;;9.26;99.55;95852.50;5057425;28;20204;-69
2021/10/31 03:42:59;;;;;;;7.93;3.80;;;;;;;9.33;99.42;95842.88;5055732;28;20196;-69
2021/10/31 03:45:26;;;;;;;6.83;3.63;;;;;;;9.26;99.23;95847.22;5055149;28;20205;-69
2021/10/31 03:47:54;;;;;;;6.33;4.10;;;;;;;9.41;99.46;95840.19;5057046;28;20433;-69
2021/10/31 03:50:22;;;;;;;6.73;3.77;;;;;;;9.40;99.10;95828.03;5056888;28;20215;-69
2021/10/31 03:52:50;;;;;;;8.93;3.67;;;;;;;9.26;99.46;95837.53;5057208;28;20224;-69
2021/10/31 03:55:17;;;;;;;9.47;3.67;;;;;;;9.17;99.47;95843.84;5056396;28;20207;-69
2021/10/31 03:57:44;;;;;;;8.30;3.43;;;;;;;9.05;98.35;95839.22;5055839;28;20224;-69
2021/10/31 04:00:13;;;;;;;3.30;2.57;;;;;;;9.16;96.99;95847.50;5054031;28;20212;-69
2021/10/31 04:02:39;;;;;;;4.70;3.77;;;;;;;9.14;96.47;95856.56;5056173;28;20652;-69
2021/10/31 04:05:09;;;;;;;5.50;3.57;;;;;;;9.21;97.43;95849.56;5056391;28;20209;-69
2021/10/31 04:07:36;;;;;;;5.03;3.37;;;;;;;8.85;98.90;95851.19;5055548;28;20692;-69
2021/10/31 04:10:03;;;;;;;4.37;3.00;;;;;;;8.97;97.78;95857.66;5057273;28;20204;-69
2021/10/31 04:12:29;;;;;;;3.47;2.40;;;;;;;8.97;96.65;95855.03;5056640;28;20228;-69
2021/10/31 04:14:56;;;;;;;4.80;3.27;;;;;;;8.81;97.16;95841.22;5056730;28;20204;-69
2021/10/31 04:17:22;;;;;;;6.47;3.87;;;;;;;8.64;97.51;95845.78;5056132;28;20221;-69
2021/10/31 04:19:49;;;;;;;6.07;3.63;;;;;;;8.51;98.69;95850.78;5058263;28;20221;-69
2021/10/31 04:22:17;;;;;;;7.67;2.60;;;;;;;9.02;97.40;95836.13;5060025;28;20197;-69
2021/10/31 04:24:43;;;;;;;4.07;2.50;;;;;;;8.77;98.05;95838.13;5060578;28;20208;-69
2021/10/31 04:27:10;;;;;;;4.90;3.00;;;;;;;8.57;100.00;95836.94;5059421;28;20704;-69
2021/10/31 04:29:36;;;;;;;4.17;3.20;;;;;;;8.52;100.00;95827.97;5059589;28;20207;-69
2021/10/31 04:32:04;;;;;;;6.03;3.37;;;;;;;8.80;100.00;95826.44;5060577;28;20731;-69
2021/10/31 04:34:30;;;;;;;3.23;2.50;;;;;;;8.70;100.00;95831.13;5060334;28;20204;-69
2021/10/31 04:36:57;;;;;;;3.70;2.13;;;;;;;8.83;99.75;95832.13;5059154;28;20224;-69
2021/10/31 04:39:25;;;;;;;4.60;1.87;;;;;;;9.05;100.00;95822.59;5060148;28;21033;-69
2021/10/31 04:41:53;;;;;;;5.77;2.97;;;;;;;8.85;100.00;95832.00;5059598;28;20732;-69
2021/10/31 04:44:19;;;;;;;4.63;2.97;;;;;;;8.91;100.00;95829.47;5059793;28;20204;-69
2021/10/31 04:46:46;;;;;;;4.40;2.40;;;;;;;9.04;100.00;95821.81;5059639;28;20227;-69
2021/10/31 04:49:12;;;;;;;5.33;3.10;;;;;;;9.13;100.00;95823.38;5059269;28;20208;-69
2021/10/31 04:51:41;;;;;;;8.93;3.57;;;;;;;9.12;100.00;95819.09;5060037;28;21202;-69
2021/10/31 04:54:08;;;;;;;9.90;3.33;;;;;;;9.11;100.00;95815.66;5060409;28;20210;-69
2021/10/31 04:56:36;;;;;;;4.90;2.67;;;;;;;9.36;100.00;95811.00;5058928;28;20335;-69
2021/10/31 04:59:03;;;;;;;6.77;2.57;;;;;;;9.12;100.00;95819.91;5059745;28;20201;-69
2021/10/31 05:01:30;;;;;;;7.10;3.10;;;;;;;9.25;100.00;95806.16;5056613;28;20664;-69
2021/10/31 05:03:56;;;;;;;5.53;3.40;;;;;;;9.24;100.00;95800.09;5060125;28;20215;-69
2021/10/31 05:06:23;;;;;;;4.43;2.77;;;;;;;9.28;100.00;95800.56;5058265;28;20203;-69
2021/10/31 05:08:49;;;;;;;5.13;2.60;;;;;;;9.13;100.00;95787.38;5059905;28;20201;-69
2021/10/31 05:11:16;;;;;;;6.03;3.03;;;;;;;9.17;100.00;95790.47;5060370;28;20204;-69
2021/10/31 05:13:44;;;;;;;4.77;2.73;;;;;;;9.38;100.00;95786.16;5059202;28;20204;-69
2021/10/31 05:16:10;;;;;;;4.77;3.27;;;;;;;9.22;100.00;95790.75;5058444;28;21049;-69
2021/10/31 05:18:37;;;;;;;3.27;2.17;;;;;;;9.31;100.00;95787.03;5059982;28;20235;-69
2021/10/31 05:21:04;;;;;;;6.50;2.97;;;;;;;9.29;100.00;95791.66;5058877;28;20209;-69
2021/10/31 05:23:31;;;;;;;7.03;3.37;;;;;;;9.22;100.00;95798.63;5058545;28;20204;-69
2021/10/31 05:25:57;;;;;;;4.67;3.20;;;;;;;9.35;100.00;95801.47;5059053;28;20207;-69
2021/10/31 05:28:25;;;;;;;7.03;2.93;;;;;;;9.37;99.77;95810.81;5058916;28;20736;-69
2021/10/31 05:30:54;;;;;;;6.43;3.20;;;;;;;9.20;100.00;95805.88;5058586;28;20204;-69
2021/10/31 05:33:22;;;;;;;6.13;3.93;;;;;;;8.90;100.00;95814.69;5058961;28;20228;-69
2021/10/31 05:35:51;;;;;;;4.43;2.53;;;;;;;8.97;100.00;95825.31;5059058;28;21058;-70
2021/10/31 05:38:19;;;;;;;3.83;2.97;;;;;;;8.94;100.00;95826.47;5059044;28;20232;-70
2021/10/31 05:40:46;;;;;;;4.93;3.30;;;;;;;9.15;100.00;95824.00;5059653;28;20588;-70
2021/10/31 05:43:12;;;;;;;5.87;3.07;;;;;;;9.11;99.95;95822.72;5059110;28;20224;-70
2021/10/31 05:45:39;;;;;;;3.23;2.40;;;;;;;8.95;99.00;95824.66;5058322;28;20665;-70
2021/10/31 05:48:07;;;;;;;6.07;2.93;;;;;;;9.21;97.92;95818.84;5058827;28;20567;-70
2021/10/31 05:50:34;;;;;;;3.07;2.23;;;;;;;8.90;99.06;95822.56;5059700;28;20205;-70
2021/10/31 05:53:01;;;;;;;4.30;2.97;;;;;;;8.84;99.42;95810.13;5059134;28;20227;-70
2021/10/31 05:55:27;;;;;;;6.00;3.57;;;;;;;8.66;100.00;95811.44;5058967;28;20208;-70
2021/10/31 05:57:54;;;;;;;4.70;2.93;;;;;;;8.76;100.00;95812.84;5058589;28;20224;-70
2021/10/31 06:00:20;;;;;;;2.57;2.20;;;;;;;8.74;100.00;95803.50;5056890;28;20204;-70
2021/10/31 06:02:47;;;;;;;3.67;2.83;;;;;;;8.71;100.00;95802.03;5059095;28;20201;-70
2021/10/31 06:05:16;;;;;;;4.27;2.97;;;;;;;8.99;100.00;95804.94;5058788;28;20774;-70
2021/10/31 06:07:43;;;;;;;7.87;3.13;;;;;;;8.75;100.00;95815.66;5058108;28;20221;-70
2021/10/31 06:10:10;;;;;;;7.53;3.53;;;;;;;8.84;100.00;95804.88;5058688;28;20268;-70
2021/10/31 06:12:37;;;;;;;9.90;3.43;;;;;;;9.03;100.00;95804.41;5058646;28;20236;-70
2021/10/31 06:15:04;;;;;;;4.50;2.83;;;;;;;8.97;100.00;95801.66;5058584;28;20216;-70
2021/10/31 06:17:31;;;;;;;5.90;2.90;;;;;;;9.03;100.00;95788.63;5058118;28;20228;-70
2021/10/31 06:19:58;;;;;;;9.87;3.00;;;;;;;9.05;100.00;95791.91;5058807;28;20211;-70
2021/10/31 06:22:26;;;;;;;4.00;2.60;;;;;;;9.19;100.00;95791.94;5058679;28;20448;-70
2021/10/31 06:24:52;;;;;;;7.43;3.43;;;;;;;9.08;100.00;95794.97;5058513;28;20200;-70
2021/10/31 06:27:19;;;;;;;3.60;2.40;;;;;;;9.31;100.00;95793.09;5058094;28;20255;-70
2021/10/31 06:29:46;;;;;;;4.93;2.93;;;;;;;9.43;100.00;95790.84;5058951;28;20570;-70
2021/10/31 06:32:12;;;;;;;3.93;2.57;;;;;;;9.44;100.00;95793.28;5058931;28;20224;-70
2021/10/31 06:34:39;;;;;;;4.93;3.17;;;;;;;9.50;100.00;95799.66;5058768;28;20962;-70
2021/10/31 06:37:05;;;;;;;4.57;2.13;;;;;;;9.43;100.00;95796.09;5058364;28;20231;-70
2021/10/31 06:39:33;;;;;;;5.00;2.83;;;;;;;9.57;100.00;95793.50;5059267;28;20219;-70
2021/10/31 06:41:59;;;;;;;5.47;3.67;;;;;;;9.53;99.41;95801.94;5058012;28;20201;-70
2021/10/31 06:44:26;;;;;;;3.80;3.13;;;;;;;9.51;99.42;95794.22;5059973;28;20208;-70
2021/10/31 06:46:53;;;;;;;5.83;3.27;;;;;;;9.58;99.00;95794.31;5058080;28;20252;-70
2021/10/31 06:49:20;;;;;;;3.73;2.60;;;;;;;9.67;98.58;95787.97;5059423;28;20239;-70
2021/10/31 06:51:46;;;;;;;4.30;3.03;;;;;;;9.63;99.02;95795.38;5060398;28;20212;-70
2021/10/31 06:54:15;;;;;;;6.63;3.70;;;;;;;9.57;100.00;95793.50;5059434;28;20200;-70
2021/10/31 06:56:43;;;;;;;6.60;3.37;;;;;;;9.93;99.13;95791.75;5057967;28;21053;-70
2021/10/31 06:59:09;;;;;;;4.30;3.30;;;;;;;9.75;99.76;95786.06;5058388;28;20215;-70
2021/10/31 07:01:36;;;;;;;7.50;3.53;;;;;;;9.83;99.89;95788.59;5058582;28;20204;-70
2021/10/31 07:04:03;;;;;;;6.17;3.77;;;;;;;9.80;99.65;95794.19;5058727;28;20211;-70
2021/10/31 07:06:30;;;;;;;4.83;2.63;;;;;;;9.77;100.00;95790.13;5058004;28;20700;-70
2021/10/31 07:08:56;;;;;;;8.77;4.57;;;;;;;9.83;100.00;95793.84;5059698;28;20212;-70
2021/10/31 07:11:23;;;;;;;5.33;3.47;;;;;;;9.80;100.00;95789.78;5060250;28;20561;-70
2021/10/31 07:13:50;;;;;;;6.37;3.93;;;;;;;10.32;100.00;95785.97;5059329;28;20216;-70
2021/10/31 07:16:17;;;;;;;5.80;3.67;;;;;;;10.27;100.00;95792.78;5058632;28;20200;-70
2021/10/31 07:18:43;;;;;;;7.13;4.07;;;;;;;10.34;99.82;95783.97;5059067;28;20211;-70
2021/10/31 07:21:10;;;;;;;5.40;3.20;;;;;;;10.43;99.79;95792.56;5059256;28;20220;-70
2021/10/31 07:23:37;;;;;;;11.30;4.90;;;;;;;10.45;100.00;95782.66;5060539;28;20200;-70
2021/10/31 07:26:03;;;;;;;5.60;3.10;;;;;;;10.58;99.70;95774.91;5059248;28;20207;-70
2021/10/31 07:28:30;;;;;;;9.23;4.10;;;;;;;10.77;99.18;95769.81;5058800;28;20227;-70
2021/10/31 07:31:00;;;;;;;5.63;3.27;;;;;;;11.08;99.58;95767.63;5058898;28;20200;-70
2021/10/31 07:33:27;;;;;;;3.47;2.53;;;;;;;10.87;99.17;95764.19;5058517;28;20228;-70
2021/10/31 07:35:54;;;;;;;5.30;2.83;;;;;;;10.93;100.00;95758.97;5057924;28;20207;-70
2021/10/31 07:38:20;;;;;;;6.13;3.77;;;;;;;10.92;100.00;95756.53;5057705;28;20227;-70
2021/10/31 07:40:47;;;;;;;8.93;3.93;;;;;;;11.16;98.60;95764.84;5057773;28;20200;-71
2021/10/31 07:43:13;;;;;;;8.17;4.20;;;;;;;10.98;99.49;95757.44;5057541;28;20204;-71
2021/10/31 07:45:41;;;;;;;7.87;4.50;;;;;;;11.20;99.83;95761.66;5056995;28;20213;-70
2021/10/31 07:48:09;;;;;;;8.83;3.80;;;;;;;11.36;99.43;95760.53;5057023;28;20220;-70
2021/10/31 07:50:36;;;;;;;9.43;4.20;;;;;;;10.98;100.00;95757.44;5056204;28;20211;-70
2021/10/31 07:53:04;;;;;;;5.43;3.70;;;;;;;11.34;99.82;95760.75;5056320;28;20747;-70
2021/10/31 07:55:33;;;;;;;6.33;4.10;;;;;;;11.24;100.00;95762.91;5059393;28;20392;-70
2021/10/31 07:58:01;;;;;;;6.33;3.77;;;;;;;11.23;100.00;95755.19;5061600;28;20220;-70
2021/10/31 08:00:28;;;;;;;7.80;4.63;;;;;;;11.11;100.00;95761.97;5058128;28;20740;-70
2021/10/31 08:02:54;;;;;;;10.00;3.83;;;;;;;11.14;100.00;95759.78;5060224;28;20475;-70
2021/10/31 08:05:23;;;;;;;5.67;4.53;;;;;;;11.21;100.00;95755.34;5060515;28;20211;-70
2021/10/31 08:07:50;;;;;;;7.17;3.70;;;;;;;11.13;99.43;95759.97;5060285;28;20220;-70
2021/10/31 08:10:17;;;;;;;6.27;3.83;;;;;;;11.14;99.27;95751.84;5060077;28;20841;-70
2021/10/31 08:12:44;;;;;;;10.20;4.17;;;;;;;11.16;99.48;95760.41;5060275;28;20507;-70
2021/10/31 08:15:11;;;;;;;9.03;5.03;;;;;;;11.20;98.40;95756.38;5060330;28;20244;-70
2021/10/31 08:17:38;;;;;;;7.43;4.10;;;;;;;11.19;98.76;95760.00;5059331;28;20217;-70
2021/10/31 08:20:06;;;;;;;6.23;3.50;;;;;;;11.21;98.99;95750.06;5059897;28;20223;-70
2021/10/31 08:22:34;;;;;;;8.90;4.63;;;;;;;11.36;100.00;95750.78;5060195;28;20474;-70
2021/10/31 08:25:01;;;;;;;4.97;3.37;;;;;;;11.23;99.14;95745.44;5060462;28;20677;-70
2021/10/31 08:27:28;;;;;;;9.90;3.50;;;;;;;11.15;99.34;95740.31;5059225;28;20294;-70
2021/10/31 08:29:55;;;;;;;7.83;5.10;;;;;;;11.27;99.32;95736.13;5059668;28;20197;-70
2021/10/31 08:32:23;;;;;;;6.00;4.07;;;;;;;11.33;99.49;95729.25;5059857;28;20586;-70
2021/10/31 08:34:50;;;;;;;8.03;4.43;;;;;;;11.53;99.62;95728.38;5059793;28;20196;-70
2021/10/31 08:37:16;;;;;;;6.67;3.60;;;;;;;11.47;100.00;95723.88;5058824;28;20398;-70
2021/10/31 08:39:44;;;;;;;8.13;3.53;;;;;;;11.82;100.00;95720.22;5060026;28;20841;-70
2021/10/31 08:42:10;;;;;;;8.00;4.60;;;;;;;11.82;99.08;95717.56;5060003;28;20691;-70
2021/10/31 08:44:38;;;;;;;5.17;3.20;;;;;;;11.73;100.00;95711.66;5059453;28;20208;-70
2021/10/31 08:47:04;;;;;;;7.90;4.00;;;;;;;11.91;99.90;95708.47;5058640;28;20815;-70
2021/10/31 08:49:31;;;;;;;5.60;3.37;;;;;;;11.98;99.98;95710.13;5059564;28;20212;-70
2021/10/31 08:51:58;;;;;;;9.17;4.13;;;;;;;12.06;100.00;95702.03;5059495;28;20699;-70
2021/10/31 08:54:24;;;;;;;6.90;4.20;;;;;;;12.23;98.84;95698.00;5059164;28;20228;-70
2021/10/31 08:56:52;;;;;;;7.30;3.87;;;;;;;12.51;99.40;95696.03;5058660;28;20251;-70
2021/10/31 08:59:19;;;;;;;6.30;3.70;;;;;;;12.28;98.66;95695.56;5056506;28;20660;-70
2021/10/31 09:01:46;;;;;;;5.63;3.23;;;;;;;12.43;98.05;95691.75;5058753;28;20283;-70
2021/10/31 09:04:12;;;;;;;7.57;3.93;;;;;;;12.34;99.40;95681.56;5059451;28;20200;-70
2021/10/31 09:06:39;;;;;;;8.30;5.37;;;;;;;12.42;99.23;95692.78;5057513;28;20220;-70
2021/10/31 09:09:06;;;;;;;10.37;4.57;;;;;;;12.72;98.79;95682.63;5058787;28;20209;-70
2021/10/31 09:11:32;;;;;;;7.00;4.33;;;;;;;12.77;97.49;95678.34;5059141;28;20208;-70
2021/10/31 09:14:00;;;;;;;6.87;3.90;;;;;;;12.82;97.02;95673.28;5059167;28;20420;-70
2021/10/31 09:16:28;;;;;;;8.07;4.40;;;;;;;12.80;96.06;95680.59;5059050;28;20211;-70
2021/10/31 09:18:54;;;;;;;6.13;4.17;;;;;;;12.74;96.44;95676.13;5059013;28;20204;-70
2021/10/31 09:21:23;;;;;;;6.57;3.10;;;;;;;12.49;97.86;95676.94;5058761;28;20523;-70
2021/10/31 09:23:50;;;;;;;6.13;3.33;;;;;;;12.66;98.12;95673.66;5058589;28;20196;-71
2021/10/31 09:26:16;;;;;;;5.23;3.23;;;;;;;12.98;97.19;95672.88;5058097;28;20779;-71
2021/10/31 09:28:43;;;;;;;6.17;3.90;;;;;;;12.80;98.43;95677.94;5058774;28;20674;-70
2021/10/31 09:31:11;;;;;;;10.67;3.87;;;;;;;13.20;96.31;95683.03;5058713;28;20201;-70
2021/10/31 09:33:39;;;;;;;5.33;3.23;;;;;;;12.81;97.13;95672.44;5058668;28;20228;-70
2021/10/31 09:36:05;;;;;;;5.57;3.77;;;;;;;13.28;95.78;95674.06;5058163;28;20211;-70
2021/10/31 09:38:33;;;;;;;6.07;3.23;;;;;;;13.46;96.32;95670.53;5057756;28;20231;-70
2021/10/31 09:41:00;;;;;;;7.20;4.03;;;;;;;13.70;94.17;95656.63;5058309;28;20204;-70
2021/10/31 09:43:29;;;;;;;7.30;3.90;;;;;;;13.64;95.30;95665.38;5058084;28;20280;-70
2021/10/31 09:45:59;;;;;;;5.88;3.05;;;;;;;14.12;93.93;95656.06;5057542;28;20197;-70
2021/10/31 09:48:31;;;;;;;5.90;3.50;;;;;;;14.58;92.40;95653.91;5058010;28;20526;-70
2021/10/31 09:50:57;;;;;;;5.53;3.05;;;;;;;14.46;92.69;95642.38;5057770;28;20205;-70
2021/10/31 09:53:25;;;;;;;8.43;4.07;;;;;;;14.74;91.72;95636.44;5057959;28;20228;-70
2021/10/31 09:55:53;;;;;;;8.43;4.20;;;;;;;14.91;91.22;95626.91;5057292;28;20212;-71
2021/10/31 09:58:22;;;;;;;5.07;3.25;;;;;;;15.17;89.71;95631.94;5057936;28;20227;-70
2021/10/31 10:00:52;;;;;;;4.68;3.58;;;;;;;15.45;89.58;95621.69;5054825;28;20274;-70
2021/10/31 10:03:35;;;;;;;7.55;4.13;;;;;;;15.51;89.48;95620.81;5057685;28;20254;-70
2021/10/31 10:06:13;;;;;;;11.45;3.97;;;;;;;15.72;88.00;95607.06;5056947;28;20232;-70
2021/10/31 10:08:39;;;;;;;10.30;4.30;;;;;;;15.41;88.81;95604.56;5057682;28;20943;-70
2021/10/31 10:11:19;;;;;;;18.23;3.42;;;;;;;15.77;87.68;95588.59;5058009;28;20204;-70
2021/10/31 10:13:46;;;;;;;7.53;3.55;;;;;;;15.66;88.90;95586.72;5057545;28;20247;-70
2021/10/31 10:16:23;;;;;;;6.53;3.83;;;;;;;16.07;86.77;95574.28;5056637;28;20204;-70
2021/10/31 10:18:50;;;;;;;6.82;3.67;;;;;;;16.05;86.63;95571.03;5056924;28;20583;-70
2021/10/31 10:21:21;;;;;;;5.93;3.22;;;;;;;16.34;86.37;95559.59;5057403;28;20208;-70
2021/10/31 10:23:49;;;;;;;7.45;3.50;;;;;;;16.33;85.76;95545.50;5057449;28;20199;-70
2021/10/31 10:26:25;;;;;;;11.27;3.65;;;;;;;16.64;86.01;95539.88;5056041;28;20389;-70
2021/10/31 10:28:52;;;;;;;4.57;2.92;;;;;;;16.47;85.88;95528.31;5057947;28;20204;-70
2021/10/31 10:31:21;;;;;;;6.43;2.78;;;;;;;16.61;84.68;95527.00;5056749;28;20213;-70
2021/10/31 10:33:48;;;;;;;3.00;2.15;;;;;;;16.74;79.72;95518.81;5056628;28;20224;-70
2021/10/31 10:36:16;;;;;;;4.85;2.28;;;;;;;17.11;78.44;95519.13;5056183;28;20201;-70
2021/10/31 10:38:44;;;;;;;4.60;2.58;;;;;;;17.10;76.44;95522.03;5057214;28;20556;-70
2021/10/31 10:41:39;;;;;;;4.20;2.08;;;;;;;17.46;74.74;95519.88;5056879;28;20215;-70
2021/10/31 10:44:24;;;;;;;6.10;2.50;;;;;;;17.54;74.09;95529.34;5056768;28;20251;-71
2021/10/31 10:46:53;;;;;;;6.30;3.10;;;;;;;17.40;74.73;95520.00;5057385;28;20390;-70
2021/10/31 10:49:20;;;;;;;3.08;1.90;;;;;;;17.17;72.87;95523.53;5056644;28;20211;-71
2021/10/31 10:52:06;;;;;;;2.72;1.70;;;;;;;17.42;73.24;95523.25;5057130;28;20210;-70
2021/10/31 10:54:34;;;;;;;3.03;2.47;;;;;;;17.63;73.92;95504.78;5056061;28;20217;-71
2021/10/31 10:57:02;;;;;;;4.35;2.42;;;;;;;17.61;74.82;95500.75;5055423;28;20506;-71
2021/10/31 10:59:30;;;;;;;5.13;2.33;;;;;;;17.33;75.56;95504.16;5053807;28;20474;-70
2021/10/31 11:02:15;;;;;;;3.63;2.15;;;;;;;17.72;73.83;95492.69;5056358;28;20653;-70
2021/10/31 11:04:43;;;;;;;3.67;2.35;;;;;;;17.47;75.70;95483.41;5056292;28;20828;-70
2021/10/31 11:07:11;;;;;;;3.85;2.33;;;;;;;17.56;77.38;95474.00;5055744;28;20224;-70
2021/10/31 11:09:44;;;;;;;3.42;2.17;;;;;;;17.23;77.92;95481.81;5056609;28;20291;-70
2021/10/31 11:12:25;;;;;;;4.13;1.83;;;;;;;17.49;76.97;95474.13;5056324;28;20291;-70
2021/10/31 11:14:54;;;;;;;4.00;1.98;;;;;;;17.47;78.39;95462.91;5055789;28;20231;-70
2021/10/31 11:17:21;;;;;;;4.30;2.17;;;;;;;17.34;77.42;95457.06;5055153;28;20224;-71
2021/10/31 11:19:48;;;;;;;4.15;2.15;;;;;;;17.54;76.68;95455.59;5056195;28;20554;-70
2021/10/31 11:22:16;;;;;;;2.60;1.80;;;;;;;17.62;76.30;95455.19;5056185;28;20543;-70
2021/10/31 11:24:47;;;;;;;3.95;1.95;;;;;;;17.79;76.84;95451.53;5056086;28;20978;-70
2021/10/31 11:27:15;;;;;;;2.63;2.03;;;;;;;17.48;77.99;95456.53;5055184;28;20216;-70
2021/10/31 11:29:43;;;;;;;6.53;2.78;;;;;;;17.59;74.92;95454.84;5055344;28;20619;-70
2021/10/31 11:32:11;;;;;;;3.42;2.03;;;;;;;17.65;76.77;95451.25;5056721;28;20228;-70
2021/10/31 11:34:38;;;;;;;4.57;1.85;;;;;;;17.59;76.96;95444.19;5056543;28;20216;-70
2021/10/31 11:37:05;;;;;;;3.33;2.10;;;;;;;17.80;77.03;95431.00;5054913;28;20224;-71
2021/10/31 11:39:33;;;;;;;2.85;1.85;;;;;;;17.88;76.07;95417.28;5055598;28;20208;-70